MMUN/CUN METAR and TAF weather

Enter ICAO airport designator
Station Type Date Time Source
MMUN METAR 2019/08/18 08:48 UTC NOAA

MMUN 180848Z 10005KT 7SM FEW015 SCT080 27/27 A2996 RMK SLP146 57016 960 8/170 HZY CI


Station Type Date Time Source
MMUN Decoded METAR 2019/08/18 08:48 UTC NOAA

Station name not available
Aug 18, 2019 - 04:48 AM EDT / 2019.08.18 0848 UTC
Wind: from the E (100 degrees) at 6 MPH (5 KT):0
Visibility: 7 mile(s):0
Sky conditions: partly cloudy
Temperature: 80 F (27 C)
Dew Point: 80 F (27 C)
Relative Humidity: 100%
Pressure (altimeter): 29.96 in. Hg (1014 hPa)
Pressure tendency: 0.05 inches (1.6 hPa) lower than three hours ago
ob: MMUN 180848Z 10005KT 7SM FEW015 SCT080 27/27 A2996 RMK SLP146 57016 960 8/170 HZY CI
cycle: 9

Station Type Date Time Source
MMUN TAF 2019/08/18 06:59 UTC NOAA

TAF MMUN 180359Z 1806/1912 12005KT P6SM SCT015 SCT250 TX32/1821Z TN24/1812Z
FM181800 13015KT P6SM BKN015 BKN250 PROB40 1900/1904 5SM -RA BKN015CB
FM190600 09005KT P6SM SCT015 SCT250 PROB40 1910/1912 6SM -RA BKN015CB

Example: see airport list